Time;durP1;ratioP1;P1;durP2;ratioP2;P2;SDS_P1;SDS_P2;PMS_P1;PMS_P2;Temp;Humidity;BMP_temperature;BMP_pressure;BME280_temperature;BME280_humidity;BME280_pressure;Samples;Min_cycle;Max_cycle;Signal;HPM_P1;HPM_P2
2023/11/18 00:01:10;;;;;;;25.95;20.45;;;;;;;7.21;100.00;102268.59;5250834;28;20036;-75
2023/11/18 00:03:42;;;;;;;23.52;19.75;;;;;;;7.19;100.00;102264.34;5249745;28;20412;-74
2023/11/18 00:06:14;;;;;;;24.40;20.45;;;;;;;7.22;100.00;102269.44;5253079;28;20021;-75
2023/11/18 00:08:46;;;;;;;25.25;20.83;;;;;;;7.20;100.00;102273.88;5250115;28;20025;-74
2023/11/18 00:11:18;;;;;;;24.08;19.42;;;;;;;7.18;100.00;102279.16;5246389;28;20079;-74
2023/11/18 00:13:50;;;;;;;25.02;21.35;;;;;;;7.18;100.00;102270.50;5250480;28;20481;-75
2023/11/18 00:16:22;;;;;;;23.00;19.55;;;;;;;7.15;100.00;102270.63;5253269;28;20028;-74
2023/11/18 00:18:54;;;;;;;26.15;20.95;;;;;;;7.16;100.00;102278.41;5252085;28;20036;-74
2023/11/18 00:21:26;;;;;;;27.20;20.85;;;;;;;7.15;100.00;102274.06;5248047;28;20498;-74
2023/11/18 00:23:57;;;;;;;24.55;20.52;;;;;;;7.15;100.00;102275.84;5247722;28;20441;-75
2023/11/18 00:26:29;;;;;;;25.27;21.75;;;;;;;7.16;100.00;102267.97;5253417;28;20028;-73
2023/11/18 00:29:01;;;;;;;24.13;19.58;;;;;;;7.07;100.00;102252.75;5251891;28;20033;-74
2023/11/18 00:31:33;;;;;;;22.45;19.80;;;;;;;7.11;100.00;102258.66;5254742;28;20024;-74
2023/11/18 00:34:05;;;;;;;23.35;19.70;;;;;;;7.12;100.00;102260.34;5250012;28;20036;-74
2023/11/18 00:36:37;;;;;;;25.45;21.00;;;;;;;7.12;100.00;102265.56;5250800;28;20037;-74
2023/11/18 00:39:09;;;;;;;23.05;19.67;;;;;;;7.09;100.00;102266.56;5247565;28;20083;-74
2023/11/18 00:41:41;;;;;;;24.67;20.35;;;;;;;7.11;100.00;102261.28;5250370;28;20396;-74
2023/11/18 00:44:13;;;;;;;25.08;20.80;;;;;;;7.08;100.00;102262.25;5248017;28;20389;-74
2023/11/18 00:46:45;;;;;;;27.60;19.97;;;;;;;7.09;100.00;102263.13;5251977;28;20032;-75
2023/11/18 00:49:17;;;;;;;23.75;20.40;;;;;;;7.04;100.00;102252.88;5251957;28;20457;-74
2023/11/18 00:51:49;;;;;;;24.25;19.30;;;;;;;7.03;100.00;102254.66;5251610;28;20021;-75
2023/11/18 00:54:21;;;;;;;23.45;20.10;;;;;;;6.89;100.00;102238.81;5255033;28;20039;-74
2023/11/18 00:56:52;;;;;;;23.23;19.98;;;;;;;6.91;100.00;102257.84;5253952;28;20474;-75
2023/11/18 00:59:24;;;;;;;25.77;21.13;;;;;;;6.93;100.00;102257.75;5254661;28;20041;-74
2023/11/18 01:01:56;;;;;;;26.08;20.75;;;;;;;6.91;100.00;102257.00;5254015;28;20029;-74
2023/11/18 01:04:28;;;;;;;25.15;20.83;;;;;;;6.87;100.00;102266.72;5256525;28;20047;-75
2023/11/18 01:07:00;;;;;;;26.23;20.55;;;;;;;6.89;100.00;102270.09;5254611;28;20679;-74
2023/11/18 01:09:36;;;;;;;23.52;20.30;;;;;;;6.90;100.00;102268.34;5256191;28;20017;-74
2023/11/18 01:12:09;;;;;;;25.83;21.88;;;;;;;6.86;100.00;102272.84;5251114;28;20389;-75
2023/11/18 01:14:41;;;;;;;24.70;19.55;;;;;;;6.90;100.00;102276.16;5252922;28;20295;-74
2023/11/18 01:17:13;;;;;;;24.02;20.08;;;;;;;6.88;100.00;102276.22;5252548;28;20028;-75
2023/11/18 01:19:45;;;;;;;26.90;20.95;;;;;;;6.89;100.00;102264.03;5255787;28;20036;-74
2023/11/18 01:22:18;;;;;;;24.60;20.67;;;;;;;6.91;100.00;102272.63;5249376;28;20037;-74
2023/11/18 01:24:51;;;;;;;27.58;20.65;;;;;;;6.96;100.00;102273.25;5256225;28;20036;-74
2023/11/18 01:27:22;;;;;;;24.55;20.40;;;;;;;7.00;100.00;102283.47;5256627;28;20025;-74
2023/11/18 01:29:54;;;;;;;23.25;19.42;;;;;;;6.99;100.00;102276.56;5253226;28;20025;-74
2023/11/18 01:32:28;;;;;;;26.08;20.85;;;;;;;7.00;100.00;102280.84;5254862;28;20021;-74
2023/11/18 01:35:00;;;;;;;26.48;21.33;;;;;;;6.99;100.00;102271.34;5254778;28;20496;-74
2023/11/18 01:37:32;;;;;;;27.15;21.45;;;;;;;7.01;100.00;102277.34;5255923;28;20032;-74
2023/11/18 01:40:07;;;;;;;26.63;21.55;;;;;;;7.02;100.00;102280.81;5252859;28;20029;-75
2023/11/18 01:42:42;;;;;;;27.75;21.10;;;;;;;7.14;100.00;102279.38;5250377;28;20036;-75
2023/11/18 01:45:14;;;;;;;25.33;20.40;;;;;;;7.08;100.00;102272.69;5251428;28;20025;-74
2023/11/18 01:47:48;;;;;;;23.63;20.65;;;;;;;7.09;100.00;102277.00;5254077;28;20040;-74
2023/11/18 01:50:20;;;;;;;26.33;20.20;;;;;;;7.09;100.00;102273.53;5253533;28;20033;-74
2023/11/18 01:52:53;;;;;;;26.93;21.63;;;;;;;7.13;100.00;102277.69;5255315;28;20020;-74
2023/11/18 01:55:24;;;;;;;26.23;21.40;;;;;;;7.12;100.00;102275.97;5252245;28;20040;-75
2023/11/18 01:57:57;;;;;;;25.67;22.08;;;;;;;7.07;100.00;102277.03;5253590;28;20390;-74
2023/11/18 02:00:30;;;;;;;25.10;21.63;;;;;;;7.12;100.00;102286.41;5249952;28;20024;-74
2023/11/18 02:03:04;;;;;;;26.63;20.58;;;;;;;7.12;100.00;102276.81;5252737;28;20028;-74
2023/11/18 02:05:36;;;;;;;26.23;22.15;;;;;;;7.05;100.00;102270.25;5253092;28;20429;-74
2023/11/18 02:08:08;;;;;;;27.90;22.00;;;;;;;7.06;100.00;102253.69;5255351;28;20029;-74
2023/11/18 02:10:57;;;;;;;26.42;20.92;;;;;;;7.29;100.00;102269.06;5247429;28;20709;-74
2023/11/18 02:13:32;;;;;;;28.27;21.38;;;;;;;7.14;100.00;102272.41;5254645;28;20029;-74
2023/11/18 02:16:08;;;;;;;23.95;20.85;;;;;;;7.19;100.00;102270.41;5255984;28;20025;-74
2023/11/18 02:18:43;;;;;;;26.80;21.38;;;;;;;7.07;100.00;102258.81;5256174;28;20021;-76
2023/11/18 02:21:15;;;;;;;23.63;21.05;;;;;;;7.07;100.00;102266.63;5255672;28;20048;-74
2023/11/18 02:23:48;;;;;;;24.67;22.07;;;;;;;7.12;100.00;102282.03;5254403;28;20032;-74
2023/11/18 02:26:23;;;;;;;22.95;20.17;;;;;;;7.21;100.00;102284.22;5257247;28;20271;-74
2023/11/18 02:28:55;;;;;;;26.08;21.42;;;;;;;7.11;100.00;102280.34;5255426;28;20036;-74
2023/11/18 02:31:33;;;;;;;22.35;19.95;;;;;;;7.21;100.00;102284.22;5254382;28;20514;-74
2023/11/18 02:34:16;;;;;;;25.23;21.42;;;;;;;7.24;100.00;102286.69;5253888;28;20041;-74
2023/11/18 02:36:50;;;;;;;25.10;20.95;;;;;;;7.16;100.00;102287.94;5252078;28;20032;-74
2023/11/18 02:39:30;;;;;;;22.80;20.40;;;;;;;7.22;100.00;102277.25;5246446;28;20024;-75
2023/11/18 02:42:03;;;;;;;24.55;20.95;;;;;;;7.13;100.00;102270.72;5254592;28;20032;-74
2023/11/18 02:44:36;;;;;;;23.90;20.75;;;;;;;7.10;100.00;102257.81;5250058;28;20025;-75
2023/11/18 02:47:09;;;;;;;24.92;21.25;;;;;;;7.16;100.00;102272.31;5255305;28;20389;-74
2023/11/18 02:49:41;;;;;;;23.60;21.10;;;;;;;7.16;100.00;102270.56;5255872;28;20048;-74
2023/11/18 02:52:13;;;;;;;25.90;20.80;;;;;;;7.13;100.00;102268.09;5250871;28;20021;-74
2023/11/18 02:54:45;;;;;;;27.33;21.10;;;;;;;7.11;100.00;102258.66;5256204;28;20496;-74
2023/11/18 02:57:17;;;;;;;22.67;20.17;;;;;;;7.10;100.00;102252.63;5254780;28;20417;-74
2023/11/18 02:59:49;;;;;;;23.23;20.75;;;;;;;7.09;100.00;102240.50;5255238;28;20025;-74
2023/11/18 03:02:22;;;;;;;24.10;20.70;;;;;;;7.10;100.00;102244.78;5252584;28;20021;-74
2023/11/18 03:04:54;;;;;;;27.08;21.42;;;;;;;7.07;100.00;102243.16;5252336;28;20025;-75
2023/11/18 03:07:28;;;;;;;24.38;20.67;;;;;;;7.09;100.00;102231.84;5253826;28;20025;-74
2023/11/18 03:10:00;;;;;;;22.92;20.25;;;;;;;7.14;100.00;102238.50;5255907;28;20028;-74
2023/11/18 03:12:32;;;;;;;24.85;21.10;;;;;;;7.05;100.00;102225.94;5253184;28;20051;-74
2023/11/18 03:15:11;;;;;;;22.58;19.25;;;;;;;7.12;100.00;102218.66;5253708;28;20482;-75
2023/11/18 03:17:45;;;;;;;25.95;20.60;;;;;;;7.05;100.00;102228.53;5255372;28;20028;-74
2023/11/18 03:20:18;;;;;;;23.42;19.38;;;;;;;7.03;100.00;102227.75;5255746;28;20024;-74
2023/11/18 03:22:51;;;;;;;25.15;20.25;;;;;;;7.08;100.00;102225.78;5251742;28;20048;-74
2023/11/18 03:25:23;;;;;;;22.55;20.02;;;;;;;7.08;100.00;102236.19;5255854;28;20033;-74
2023/11/18 03:27:55;;;;;;;25.25;19.50;;;;;;;6.94;100.00;102228.22;5255630;28;20033;-74
2023/11/18 03:30:28;;;;;;;22.17;19.77;;;;;;;6.94;100.00;102228.22;5248771;28;20076;-74
2023/11/18 03:33:01;;;;;;;22.05;18.58;;;;;;;6.98;100.00;102225.38;5253742;28;20043;-74
2023/11/18 03:35:33;;;;;;;22.37;18.67;;;;;;;7.01;100.00;102227.84;5255520;28;20627;-74
2023/11/18 03:38:05;;;;;;;24.83;19.63;;;;;;;7.00;100.00;102217.47;5254800;28;20032;-75
2023/11/18 03:40:36;;;;;;;21.58;18.98;;;;;;;7.04;100.00;102219.00;5253210;28;20040;-74
2023/11/18 03:43:11;;;;;;;21.15;18.85;;;;;;;7.02;100.00;102213.06;5252908;28;20039;-74
2023/11/18 03:45:43;;;;;;;23.02;18.52;;;;;;;7.01;100.00;102201.78;5254893;28;20017;-75
2023/11/18 03:48:14;;;;;;;23.25;18.75;;;;;;;7.01;100.00;102193.97;5254144;28;20421;-74
2023/11/18 03:50:46;;;;;;;22.70;18.60;;;;;;;7.05;100.00;102192.06;5251855;28;20067;-74
2023/11/18 03:53:18;;;;;;;23.23;18.90;;;;;;;7.05;100.00;102185.09;5255897;28;20032;-74
2023/11/18 03:55:51;;;;;;;24.00;18.55;;;;;;;7.04;100.00;102185.97;5252629;28;20021;-75
2023/11/18 03:58:23;;;;;;;21.42;18.50;;;;;;;7.09;100.00;102177.13;5253065;28;20029;-74
2023/11/18 04:00:55;;;;;;;20.80;17.50;;;;;;;7.03;100.00;102176.47;5253301;28;20482;-74
2023/11/18 04:03:27;;;;;;;22.15;18.80;;;;;;;7.02;100.00;102171.34;5251103;28;20037;-74
2023/11/18 04:05:59;;;;;;;22.92;18.55;;;;;;;7.02;100.00;102171.34;5254935;28;20047;-74
2023/11/18 04:08:34;;;;;;;25.17;17.77;;;;;;;7.07;100.00;102165.00;5254204;28;20049;-75
2023/11/18 04:11:06;;;;;;;23.50;17.77;;;;;;;7.10;100.00;102158.78;5249800;28;20359;-74
2023/11/18 04:13:38;;;;;;;22.25;17.33;;;;;;;7.11;100.00;102157.03;5252630;28;20029;-74
2023/11/18 04:16:12;;;;;;;22.75;17.88;;;;;;;7.11;100.00;102165.69;5254813;28;20055;-74
2023/11/18 04:18:45;;;;;;;20.90;17.13;;;;;;;7.14;100.00;102164.69;5253639;28;20032;-74
2023/11/18 04:21:17;;;;;;;24.48;18.20;;;;;;;7.19;100.00;102171.34;5251056;28;20037;-75
2023/11/18 04:23:49;;;;;;;20.38;17.02;;;;;;;7.21;100.00;102166.94;5255162;28;20037;-74
2023/11/18 04:26:21;;;;;;;19.33;17.20;;;;;;;7.22;100.00;102163.41;5254769;28;20028;-75
2023/11/18 04:28:53;;;;;;;22.08;16.27;;;;;;;7.23;100.00;102161.63;5256491;28;20031;-74
2023/11/18 04:31:25;;;;;;;22.20;16.50;;;;;;;7.26;100.00;102151.06;5258934;28;20021;-74
2023/11/18 04:33:57;;;;;;;21.33;16.67;;;;;;;7.24;100.00;102148.53;5256944;28;20033;-75
2023/11/18 04:36:31;;;;;;;19.67;16.10;;;;;;;7.25;100.00;102144.16;5257593;28;20465;-74
2023/11/18 04:39:03;;;;;;;25.13;16.52;;;;;;;7.24;100.00;102145.94;5256694;28;20029;-74
2023/11/18 04:41:36;;;;;;;21.58;15.85;;;;;;;7.27;100.00;102142.31;5257131;28;20036;-75
2023/11/18 04:44:08;;;;;;;21.55;16.33;;;;;;;7.25;100.00;102137.19;5255753;28;20469;-74
2023/11/18 04:46:40;;;;;;;21.25;15.90;;;;;;;7.28;100.00;102129.22;5258320;28;20020;-75
2023/11/18 04:49:12;;;;;;;21.17;15.98;;;;;;;7.26;100.00;102133.66;5254599;28;20028;-75
2023/11/18 04:51:43;;;;;;;23.33;15.50;;;;;;;7.26;100.00;102132.81;5256450;28;20067;-75
2023/11/18 04:54:15;;;;;;;20.67;14.80;;;;;;;7.26;100.00;102125.00;5258371;28;20029;-74
2023/11/18 04:56:47;;;;;;;21.88;15.50;;;;;;;7.27;100.00;102122.31;5259101;28;20025;-74
2023/11/18 04:59:19;;;;;;;22.88;16.30;;;;;;;7.27;100.00;102118.84;5255831;28;20482;-74
2023/11/18 05:01:52;;;;;;;22.17;15.27;;;;;;;7.29;100.00;102114.41;5256427;28;20470;-74
2023/11/18 05:04:24;;;;;;;;;;;;;;;7.93;100.00;102105.84;5259556;28;20017;-74
2023/11/18 05:06:56;;;;;;;21.80;15.52;;;;;;;7.39;100.00;102107.81;5254492;28;20084;-74
2023/11/18 05:09:28;;;;;;;20.55;15.15;;;;;;;7.38;100.00;102103.50;5252352;28;20477;-74
2023/11/18 05:12:00;;;;;;;18.80;14.15;;;;;;;7.37;100.00;102107.03;5256861;28;20031;-74
2023/11/18 05:14:32;;;;;;;19.52;15.27;;;;;;;7.36;100.00;102094.94;5257233;28;20062;-74
2023/11/18 05:17:04;;;;;;;20.55;14.52;;;;;;;7.32;100.00;102091.63;5255934;28;20035;-74
2023/11/18 05:19:36;;;;;;;16.70;13.25;;;;;;;7.33;100.00;102089.88;5253175;28;20033;-74
2023/11/18 05:22:08;;;;;;;19.40;13.60;;;;;;;7.31;100.00;102086.50;5254475;28;20059;-74
2023/11/18 05:24:40;;;;;;;16.55;12.90;;;;;;;7.37;100.00;102078.38;5255889;28;20394;-74
2023/11/18 05:27:12;;;;;;;18.70;13.23;;;;;;;7.37;100.00;102080.13;5256736;28;20028;-74
2023/11/18 05:29:54;;;;;;;16.10;12.25;;;;;;;7.36;100.00;102071.47;5255557;28;20024;-74
2023/11/18 05:32:30;;;;;;;21.30;13.98;;;;;;;7.48;100.00;102077.81;5258211;28;20029;-75
2023/11/18 05:35:04;;;;;;;17.77;13.68;;;;;;;7.39;100.00;102075.69;5257313;28;20391;-75
2023/11/18 05:37:37;;;;;;;17.00;12.73;;;;;;;7.38;100.00;102077.44;5256705;28;20039;-75
2023/11/18 05:40:11;;;;;;;15.80;11.93;;;;;;;7.41;100.00;102076.44;5255503;28;20028;-75
2023/11/18 05:42:46;;;;;;;15.70;11.38;;;;;;;7.42;100.00;102078.13;5256898;28;20028;-76
2023/11/18 05:45:27;;;;;;;15.18;11.98;;;;;;;7.34;100.00;102055.06;5256566;28;20029;-75
2023/11/18 05:47:59;;;;;;;17.42;11.68;;;;;;;7.41;100.00;102060.81;5255780;28;20045;-74
2023/11/18 05:50:31;;;;;;;14.02;11.27;;;;;;;7.43;100.00;102069.41;5237699;28;20036;-75
2023/11/18 05:53:03;;;;;;;14.70;10.38;;;;;;;7.39;100.00;102045.25;5257562;28;20515;-74
2023/11/18 05:55:35;;;;;;;19.42;11.48;;;;;;;7.44;100.00;102055.44;5255993;28;20033;-75
2023/11/18 05:58:08;;;;;;;14.70;10.35;;;;;;;7.46;100.00;102050.97;5255858;28;20040;-74
2023/11/18 06:00:40;;;;;;;15.77;11.07;;;;;;;7.48;100.00;102047.38;5256920;28;20021;-75
2023/11/18 06:03:12;;;;;;;14.25;10.32;;;;;;;7.46;100.00;102049.22;5257839;28;20039;-74
2023/11/18 06:05:44;;;;;;;14.70;10.05;;;;;;;7.49;100.00;102043.81;5253395;28;20532;-75
2023/11/18 06:08:16;;;;;;;12.40;9.75;;;;;;;7.48;100.00;102028.28;5254775;28;20437;-75
2023/11/18 06:10:48;;;;;;;13.30;9.82;;;;;;;7.50;100.00;102015.97;5257431;28;20021;-74
2023/11/18 06:13:20;;;;;;;14.00;10.02;;;;;;;7.57;100.00;102012.13;5255985;28;20032;-74
2023/11/18 06:15:53;;;;;;;15.77;10.37;;;;;;;7.58;100.00;102019.03;5256381;28;20024;-74
2023/11/18 06:18:25;;;;;;;14.20;9.43;;;;;;;7.57;100.00;102025.16;5255310;28;20040;-75
2023/11/18 06:20:56;;;;;;;14.82;9.85;;;;;;;7.59;100.00;102035.53;5254563;28;20508;-74
2023/11/18 06:23:28;;;;;;;15.10;8.77;;;;;;;7.60;100.00;102045.03;5257462;28;20382;-75
2023/11/18 06:26:00;;;;;;;13.40;9.15;;;;;;;7.59;100.00;102045.97;5256356;28;20108;-75
2023/11/18 06:28:33;;;;;;;12.05;8.60;;;;;;;7.57;100.00;102033.00;5257175;28;20031;-74
2023/11/18 06:31:08;;;;;;;9.98;8.65;;;;;;;7.55;100.00;102016.59;5255734;28;20024;-74
2023/11/18 06:33:45;;;;;;;12.68;8.38;;;;;;;7.71;100.00;102030.50;5255054;28;20048;-74
2023/11/18 06:36:21;;;;;;;12.57;7.95;;;;;;;7.62;100.00;102030.16;5255169;28;20036;-74
2023/11/18 06:38:53;;;;;;;11.68;8.13;;;;;;;7.63;100.00;102030.06;5250198;28;20036;-74
2023/11/18 06:41:33;;;;;;;13.75;7.35;;;;;;;7.67;100.00;102034.19;5253737;28;20394;-74
2023/11/18 06:44:13;;;;;;;12.57;8.13;;;;;;;7.66;100.00;102031.69;5254617;28;20032;-74
2023/11/18 06:46:45;;;;;;;11.10;7.55;;;;;;;7.67;100.00;102022.91;5253319;28;20763;-74
2023/11/18 06:49:17;;;;;;;10.18;7.65;;;;;;;7.64;100.00;102021.31;5255427;28;20114;-74
2023/11/18 06:51:49;;;;;;;12.45;7.90;;;;;;;7.65;100.00;102019.53;5255026;28;20094;-74
2023/11/18 06:54:21;;;;;;;10.52;7.18;;;;;;;7.65;100.00;102023.00;5255329;28;20043;-74
2023/11/18 06:56:52;;;;;;;11.10;7.72;;;;;;;7.69;100.00;102023.66;5251419;28;20058;-74
2023/11/18 06:59:24;;;;;;;12.35;7.47;;;;;;;7.64;100.00;102010.88;5254375;28;20021;-74
2023/11/18 07:01:56;;;;;;;12.65;7.63;;;;;;;7.70;100.00;102021.00;5255088;28;20041;-74
2023/11/18 07:04:28;;;;;;;11.75;7.35;;;;;;;7.69;100.00;102014.09;5252192;28;20025;-74
2023/11/18 07:07:01;;;;;;;12.80;7.82;;;;;;;7.69;100.00;102016.69;5252855;28;20033;-74
2023/11/18 07:09:35;;;;;;;10.38;7.60;;;;;;;7.71;100.00;102003.56;5251876;28;20040;-74
2023/11/18 07:12:08;;;;;;;11.80;7.32;;;;;;;7.66;100.00;102003.81;5249807;28;20324;-74
2023/11/18 07:14:39;;;;;;;11.27;7.35;;;;;;;7.66;100.00;102009.03;5253530;28;20393;-74
2023/11/18 07:17:11;;;;;;;10.27;7.20;;;;;;;7.67;100.00;102018.53;5252876;28;20029;-74
2023/11/18 07:19:44;;;;;;;8.90;7.03;;;;;;;7.68;100.00;102017.59;5253727;28;20025;-74
2023/11/18 07:22:16;;;;;;;8.93;6.45;;;;;;;7.71;100.00;102009.63;5253050;28;20052;-75
2023/11/18 07:24:48;;;;;;;10.15;6.38;;;;;;;7.69;100.00;102001.06;5255277;28;20462;-74
2023/11/18 07:27:20;;;;;;;11.40;6.50;;;;;;;7.71;100.00;102004.41;5253975;28;20401;-74
2023/11/18 07:29:52;;;;;;;8.93;6.03;;;;;;;7.75;100.00;102011.13;5253893;28;20020;-74
2023/11/18 07:32:24;;;;;;;12.35;5.88;;;;;;;7.79;100.00;102017.03;5252444;28;20040;-74
2023/11/18 07:34:56;;;;;;;10.13;5.97;;;;;;;7.78;100.00;102010.97;5253073;28;20421;-74
2023/11/18 07:37:32;;;;;;;9.15;6.07;;;;;;;7.80;100.00;102019.56;5254117;28;20034;-74
2023/11/18 07:40:05;;;;;;;11.07;5.90;;;;;;;7.79;100.00;102020.47;5253533;28;20501;-74
2023/11/18 07:42:37;;;;;;;11.85;5.97;;;;;;;7.86;100.00;102015.78;5249092;28;20043;-74
2023/11/18 07:45:17;;;;;;;9.97;5.30;;;;;;;7.87;100.00;102022.66;5254220;28;20498;-74
2023/11/18 07:47:51;;;;;;;10.00;5.95;;;;;;;7.96;100.00;102013.53;5252839;28;20040;-74
2023/11/18 07:50:23;;;;;;;11.63;6.32;;;;;;;7.89;100.00;102020.00;5252680;28;20029;-74
2023/11/18 07:52:56;;;;;;;7.95;5.30;;;;;;;7.90;100.00;102022.50;5255474;28;20569;-74
2023/11/18 07:55:29;;;;;;;8.45;5.20;;;;;;;7.93;100.00;102029.34;5251843;28;20025;-74
2023/11/18 07:58:01;;;;;;;7.50;5.63;;;;;;;7.95;100.00;102012.66;5254216;28;20029;-74
2023/11/18 08:00:35;;;;;;;11.30;6.13;;;;;;;7.96;100.00;102011.75;5253470;28;20625;-74
2023/11/18 08:03:11;;;;;;;10.30;5.32;;;;;;;7.92;100.00;102018.06;5254170;28;20036;-74
2023/11/18 08:05:45;;;;;;;10.63;6.03;;;;;;;7.98;100.00;102017.69;5234814;28;20052;-74
2023/11/18 08:08:16;;;;;;;10.93;5.72;;;;;;;7.97;100.00;102023.03;5252934;28;20032;-74
2023/11/18 08:10:48;;;;;;;7.07;5.00;;;;;;;7.98;100.00;102030.75;5247753;28;20033;-74
2023/11/18 08:13:21;;;;;;;8.48;5.03;;;;;;;8.00;100.00;102031.53;5252374;28;20473;-74
2023/11/18 08:15:53;;;;;;;10.90;6.13;;;;;;;8.02;100.00;102016.59;5252542;28;20079;-75
2023/11/18 08:18:27;;;;;;;8.48;4.65;;;;;;;8.02;100.00;102005.34;5252687;28;20028;-75
2023/11/18 08:21:00;;;;;;;7.28;5.13;;;;;;;8.02;100.00;101997.50;5252919;28;20491;-75
2023/11/18 08:23:31;;;;;;;8.38;5.03;;;;;;;8.09;100.00;102009.28;5252915;28;20037;-75
2023/11/18 08:26:05;;;;;;;9.90;5.20;;;;;;;8.10;100.00;102004.91;5248860;28;20043;-74
2023/11/18 08:28:37;;;;;;;13.32;5.35;;;;;;;8.12;100.00;102008.28;5229862;28;20445;-74
2023/11/18 08:31:09;;;;;;;9.65;5.00;;;;;;;8.16;100.00;102005.41;5251008;28;20021;-75
2023/11/18 08:33:41;;;;;;;7.80;4.32;;;;;;;8.19;100.00;102000.03;5254871;28;20029;-74
2023/11/18 08:36:13;;;;;;;8.95;4.95;;;;;;;8.20;100.00;101990.41;5254838;28;20028;-75
2023/11/18 08:38:47;;;;;;;8.35;4.80;;;;;;;8.21;100.00;101997.31;5254409;28;20020;-75
2023/11/18 08:41:19;;;;;;;8.32;5.40;;;;;;;8.23;100.00;101988.47;5244431;28;20478;-75
2023/11/18 08:43:52;;;;;;;8.82;4.93;;;;;;;8.26;100.00;101988.31;5252042;28;20033;-75
2023/11/18 08:46:24;;;;;;;7.57;4.70;;;;;;;8.28;100.00;101990.81;5254024;28;20028;-75
2023/11/18 08:48:56;;;;;;;9.48;5.05;;;;;;;8.29;100.00;101984.66;5254713;28;20032;-75
2023/11/18 08:51:28;;;;;;;9.45;4.70;;;;;;;8.28;100.00;101983.81;5253408;28;20447;-75
2023/11/18 08:54:01;;;;;;;7.45;4.63;;;;;;;8.25;100.00;101973.56;5252750;28;20424;-75
2023/11/18 08:56:34;;;;;;;7.72;4.22;;;;;;;8.29;100.00;101975.06;5252520;28;20119;-75
2023/11/18 08:59:08;;;;;;;6.78;4.88;;;;;;;8.30;100.00;101960.25;5250576;28;20044;-74
2023/11/18 09:01:42;;;;;;;8.55;4.78;;;;;;;8.37;100.00;101953.78;5253102;28;20032;-74
2023/11/18 09:04:14;;;;;;;9.07;4.53;;;;;;;8.31;100.00;101954.09;5249114;28;20398;-74
2023/11/18 09:06:47;;;;;;;10.32;5.38;;;;;;;8.36;100.00;101953.81;5252115;28;20028;-74
2023/11/18 09:09:26;;;;;;;;;;;;;;;8.99;100.00;101962.28;5249545;28;20037;-73
2023/11/18 09:11:57;;;;;;;6.95;4.20;;;;;;;8.43;100.00;101949.97;5248598;28;19913;-73
2023/11/18 09:14:31;;;;;;;8.10;4.47;;;;;;;8.44;100.00;101951.63;5255538;28;20543;-73
2023/11/18 09:17:06;;;;;;;7.43;4.32;;;;;;;8.45;100.00;101942.91;5253440;28;20556;-73
2023/11/18 09:19:38;;;;;;;6.45;4.32;;;;;;;8.41;100.00;101931.78;5256213;28;20367;-73
2023/11/18 09:22:13;;;;;;;8.10;3.77;;;;;;;8.34;100.00;101912.16;5257300;28;20040;-73
2023/11/18 09:24:44;;;;;;;6.05;3.95;;;;;;;8.41;100.00;101923.97;5256872;28;20390;-73
2023/11/18 09:27:17;;;;;;;6.47;4.20;;;;;;;8.43;100.00;101921.25;5253345;28;20107;-73
2023/11/18 09:29:49;;;;;;;7.18;4.65;;;;;;;8.49;100.00;101918.28;5256125;28;20446;-73
2023/11/18 09:32:25;;;;;;;7.15;3.80;;;;;;;8.51;100.00;101906.78;5247982;28;20029;-73
2023/11/18 09:34:58;;;;;;;8.75;3.92;;;;;;;8.49;100.00;101893.00;5252418;28;20041;-73
2023/11/18 09:37:30;;;;;;;12.25;4.40;;;;;;;8.51;100.00;101896.34;5257476;28;20040;-73
2023/11/18 09:40:11;;;;;;;7.05;3.70;;;;;;;8.51;100.00;101895.50;5256368;28;20041;-73
2023/11/18 09:42:44;;;;;;;8.05;3.78;;;;;;;8.54;100.00;101890.09;5251371;28;20040;-73
2023/11/18 09:45:19;;;;;;;7.03;3.80;;;;;;;8.63;100.00;101886.94;5251453;28;20409;-73
2023/11/18 09:47:53;;;;;;;9.48;4.22;;;;;;;8.64;100.00;101891.25;5255910;28;20379;-73
2023/11/18 09:50:29;;;;;;;8.38;4.30;;;;;;;8.75;100.00;101887.97;5256183;28;20399;-73
2023/11/18 09:53:08;;;;;;;7.88;4.30;;;;;;;8.81;100.00;101882.38;5252762;28;20033;-73
2023/11/18 09:55:55;;;;;;;8.63;3.97;;;;;;;8.92;100.00;101879.97;5253693;28;20029;-73
2023/11/18 09:58:40;;;;;;;9.35;4.57;;;;;;;8.89;100.00;101874.91;5254631;28;20090;-73
2023/11/18 10:01:13;;;;;;;10.32;4.10;;;;;;;8.88;100.00;101878.47;5246884;28;20037;-73
2023/11/18 10:03:46;;;;;;;6.73;4.20;;;;;;;8.91;100.00;101873.06;5254815;28;20040;-73
2023/11/18 10:06:20;;;;;;;;;;;;;;;9.50;100.00;101865.84;5254383;28;20680;-73
2023/11/18 10:08:53;;;;;;;;;;;;;;;9.59;100.00;101855.75;5255051;28;19913;-74
2023/11/18 10:11:26;;;;;;;7.82;3.67;;;;;;;9.01;100.00;101852.41;5253003;28;19913;-74
2023/11/18 10:13:57;;;;;;;5.53;3.60;;;;;;;9.01;100.00;101847.19;5255357;28;20037;-74
2023/11/18 10:16:30;;;;;;;8.27;3.97;;;;;;;9.02;100.00;101839.25;5250001;28;20036;-74
2023/11/18 10:19:08;;;;;;;7.40;4.15;;;;;;;8.99;100.00;101839.44;5248180;28;20501;-73
2023/11/18 10:21:40;;;;;;;8.02;3.90;;;;;;;9.02;100.00;101847.09;5250979;28;20045;-74
2023/11/18 10:24:19;;;;;;;6.00;3.58;;;;;;;9.04;100.00;101839.16;5246732;28;20478;-75
2023/11/18 10:26:57;;;;;;;7.78;3.80;;;;;;;9.18;100.00;101830.44;5249141;28;20029;-74
2023/11/18 10:29:29;;;;;;;8.73;3.50;;;;;;;9.10;100.00;101830.94;5254326;28;20386;-74
2023/11/18 10:32:07;;;;;;;9.30;3.92;;;;;;;9.23;100.00;101812.69;5253927;28;20021;-74
2023/11/18 10:34:39;;;;;;;7.85;3.45;;;;;;;9.19;100.00;101814.66;5250019;28;20025;-74
2023/11/18 10:37:11;;;;;;;8.50;4.00;;;;;;;9.24;100.00;101811.75;5254789;28;20450;-74
2023/11/18 10:39:51;;;;;;;7.68;3.38;;;;;;;9.37;100.00;101814.44;5252684;28;20503;-75
2023/11/18 10:42:30;;;;;;;8.35;4.00;;;;;;;9.40;100.00;101817.69;5250619;28;20378;-74
2023/11/18 10:45:03;;;;;;;8.45;3.75;;;;;;;9.37;100.00;101814.44;5252465;28;20033;-74
2023/11/18 10:47:41;;;;;;;8.00;3.47;;;;;;;9.42;100.00;101807.13;5252212;28;20052;-74
2023/11/18 10:50:13;;;;;;;9.35;4.13;;;;;;;9.42;100.00;101794.03;5249546;28;20025;-74
2023/11/18 10:52:46;;;;;;;5.97;3.20;;;;;;;9.46;100.00;101798.97;5249860;28;20029;-74
2023/11/18 10:55:19;;;;;;;7.47;3.27;;;;;;;9.52;100.00;101786.44;5254686;28;20032;-74
2023/11/18 10:57:52;;;;;;;8.18;3.50;;;;;;;9.55;100.00;101797.56;5251612;28;20025;-75
2023/11/18 11:00:26;;;;;;;10.88;4.00;;;;;;;9.56;100.00;101796.59;5253616;28;20398;-74
2023/11/18 11:02:58;;;;;;;8.65;2.72;;;;;;;9.52;100.00;101792.50;5254650;28;20033;-75
2023/11/18 11:05:38;;;;;;;6.88;2.92;;;;;;;9.55;100.00;101791.50;5252743;28;20506;-74
2023/11/18 11:08:15;;;;;;;8.38;3.20;;;;;;;9.69;100.00;101780.94;5250410;28;20041;-74
2023/11/18 11:10:49;;;;;;;10.15;3.72;;;;;;;9.65;100.00;101772.44;5253840;28;20025;-74
2023/11/18 11:13:23;;;;;;;7.00;3.28;;;;;;;9.60;100.00;101763.22;5250637;28;20027;-74
2023/11/18 11:15:56;;;;;;;9.93;3.78;;;;;;;9.60;100.00;101763.22;5251853;28;20033;-74
2023/11/18 11:18:34;;;;;;;5.85;3.55;;;;;;;9.65;100.00;101759.34;5251312;28;20033;-74
2023/11/18 11:21:15;;;;;;;10.20;3.08;;;;;;;9.64;100.00;101752.47;5250971;28;20033;-74
2023/11/18 11:23:55;;;;;;;7.38;3.33;;;;;;;9.77;100.00;101746.41;5241549;28;20033;-74
2023/11/18 11:26:40;;;;;;;8.38;3.10;;;;;;;9.80;100.00;101730.50;5233117;28;20343;-74
2023/11/18 11:29:25;;;;;;;10.10;2.83;;;;;;;9.70;100.00;101711.97;5253749;28;20022;-74
2023/11/18 11:32:27;;;;;;;6.30;2.97;;;;;;;9.95;100.00;101691.03;5240446;28;20057;-74
2023/11/18 11:35:07;;;;;;;7.95;2.75;;;;;;;9.78;100.00;101691.38;5255018;28;20036;-74
2023/11/18 11:37:42;;;;;;;9.38;3.38;;;;;;;9.73;100.00;101680.34;5252859;28;20021;-74
2023/11/18 11:40:21;;;;;;;5.63;2.53;;;;;;;9.77;100.00;101666.13;5251084;28;20034;-74
2023/11/18 11:42:56;;;;;;;6.35;3.03;;;;;;;9.78;100.00;101665.19;5233539;28;20067;-74
2023/11/18 11:45:28;;;;;;;7.63;2.90;;;;;;;9.79;100.00;101648.53;5234245;28;20276;-73